Time;durP1;ratioP1;P1;durP2;ratioP2;P2;SDS_P1;SDS_P2;PMS_P1;PMS_P2;Temp;Humidity;BMP_temperature;BMP_pressure;BME280_temperature;BME280_humidity;BME280_pressure;Samples;Min_cycle;Max_cycle;Signal;HPM_P1;HPM_P2
2023/09/04 00:01:16;;;;;;;24.20;15.20;;;;;;;13.55;100.00;102204.06;5029723;28;20426;-91
2023/09/04 00:03:46;;;;;;;22.30;15.18;;;;;;;13.55;100.00;102206.78;5050895;28;20419;-90
2023/09/04 00:06:15;;;;;;;24.42;14.80;;;;;;;13.58;100.00;102197.25;5034978;28;20884;-91
2023/09/04 00:08:43;;;;;;;27.27;16.47;;;;;;;13.58;100.00;102206.25;5034665;28;20430;-90
2023/09/04 00:11:11;;;;;;;27.65;16.60;;;;;;;13.66;100.00;102207.69;5049854;28;20914;-90
2023/09/04 00:13:45;;;;;;;28.48;17.05;;;;;;;13.60;100.00;102204.09;5031262;28;20948;-89
2023/09/04 00:16:13;;;;;;;25.42;16.20;;;;;;;13.63;100.00;102213.69;5034649;28;20427;-91
2023/09/04 00:18:48;;;;;;;24.52;15.40;;;;;;;13.73;100.00;102207.47;5050348;28;20426;-91
2023/09/04 00:21:21;;;;;;;25.38;15.60;;;;;;;13.65;100.00;102214.25;5050010;28;20434;-92
2023/09/04 00:23:49;;;;;;;25.98;16.33;;;;;;;13.60;100.00;102216.94;5034631;28;20419;-91
2023/09/04 00:26:18;;;;;;;26.73;16.00;;;;;;;13.59;100.00;102215.31;5034509;28;20414;-91
2023/09/04 00:28:48;;;;;;;26.40;15.98;;;;;;;13.61;100.00;102221.31;5034735;28;20410;-91
2023/09/04 00:31:16;;;;;;;28.90;15.88;;;;;;;13.57;100.00;102217.47;5033781;28;20426;-92
2023/09/04 00:33:45;;;;;;;22.85;15.00;;;;;;;13.59;100.00;102224.31;5034374;28;20407;-92
2023/09/04 00:36:14;;;;;;;28.00;15.73;;;;;;;13.56;100.00;102219.38;5034101;28;20749;-91
2023/09/04 00:38:43;;;;;;;26.02;15.65;;;;;;;13.58;100.00;102214.47;5031342;28;20407;-91
2023/09/04 00:41:11;;;;;;;26.50;16.23;;;;;;;13.63;100.00;102215.59;5026269;28;20429;-92
2023/09/04 00:43:44;;;;;;;26.58;16.00;;;;;;;13.67;100.00;102225.75;5033055;28;20431;-91
2023/09/04 00:46:13;;;;;;;24.98;16.55;;;;;;;13.67;100.00;102222.19;5032446;28;20430;-91
2023/09/04 00:48:43;;;;;;;24.63;16.10;;;;;;;13.63;100.00;102226.53;5033805;28;20411;-93
2023/09/04 00:51:12;;;;;;;30.70;16.90;;;;;;;13.61;100.00;102226.78;5027948;28;20415;-91
2023/09/04 00:53:42;;;;;;;29.53;17.23;;;;;;;13.55;100.00;102228.69;5033508;28;20414;-91
2023/09/04 00:56:14;;;;;;;27.63;17.48;;;;;;;13.61;100.00;102233.09;5029695;28;20464;-89
2023/09/04 00:58:42;;;;;;;25.80;16.55;;;;;;;13.59;100.00;102234.47;5032841;28;20438;-91
2023/09/04 01:01:11;;;;;;;27.23;17.60;;;;;;;13.56;100.00;102226.75;5031834;28;20427;-92
2023/09/04 01:03:40;;;;;;;28.23;17.40;;;;;;;13.54;100.00;102232.50;5032571;28;20419;-91
2023/09/04 01:06:08;;;;;;;26.67;16.65;;;;;;;13.54;100.00;102234.41;5034437;28;20419;-92
2023/09/04 01:08:37;;;;;;;27.85;17.15;;;;;;;13.51;100.00;102238.50;5035199;28;20411;-92
2023/09/04 01:11:12;;;;;;;30.17;17.40;;;;;;;13.42;100.00;102231.84;5033835;28;20915;-92
2023/09/04 01:13:45;;;;;;;26.70;16.70;;;;;;;13.45;100.00;102236.81;5047757;28;20422;-91
2023/09/04 01:16:15;;;;;;;26.77;17.40;;;;;;;13.47;100.00;102237.38;5031308;28;20775;-91
2023/09/04 01:18:44;;;;;;;25.83;16.65;;;;;;;13.49;100.00;102240.69;5032205;28;20843;-89
2023/09/04 01:21:13;;;;;;;24.30;16.27;;;;;;;13.47;100.00;102233.81;5033448;28;20426;-93
2023/09/04 01:23:47;;;;;;;26.05;16.60;;;;;;;13.44;100.00;102233.22;5032939;28;20407;-91
2023/09/04 01:26:20;;;;;;;26.30;16.00;;;;;;;13.37;100.00;102231.81;5029739;28;20460;-91
2023/09/04 01:29:01;;;;;;;26.95;17.42;;;;;;;13.41;100.00;102219.28;5032386;28;20423;-91
2023/09/04 01:31:33;;;;;;;27.10;16.60;;;;;;;13.40;100.00;102221.16;5026553;28;20428;-92
2023/09/04 01:34:08;;;;;;;27.58;16.45;;;;;;;13.38;100.00;102225.25;5029363;28;20864;-92
2023/09/04 01:36:39;;;;;;;26.98;16.58;;;;;;;13.36;100.00;102221.97;5047796;28;20430;-90
2023/09/04 01:39:08;;;;;;;27.17;16.80;;;;;;;13.36;100.00;102209.09;5027093;28;20439;-91
2023/09/04 01:41:38;;;;;;;26.83;16.88;;;;;;;13.43;100.00;102211.63;5031594;28;20430;-92
2023/09/04 01:44:07;;;;;;;27.90;16.73;;;;;;;13.39;100.00;102215.97;5032189;28;20426;-92
2023/09/04 01:46:36;;;;;;;26.30;16.38;;;;;;;13.35;100.00;102203.88;5029979;28;20427;-92
2023/09/04 01:49:04;;;;;;;28.58;17.55;;;;;;;13.39;100.00;102207.75;5029042;28;20419;-92
2023/09/04 01:51:32;;;;;;;27.20;16.70;;;;;;;13.34;100.00;102207.69;5045399;28;20411;-90
2023/09/04 01:54:02;;;;;;;28.00;17.83;;;;;;;13.40;100.00;102210.22;5044086;28;20431;-90
2023/09/04 01:56:31;;;;;;;28.13;17.88;;;;;;;13.43;100.00;102209.69;5046931;28;20803;-90
2023/09/04 01:58:59;;;;;;;27.95;16.85;;;;;;;13.47;100.00;102204.53;5031096;28;20418;-90
2023/09/04 02:01:32;;;;;;;26.98;16.85;;;;;;;13.44;100.00;102196.88;5031400;28;20423;-92
2023/09/04 02:04:00;;;;;;;29.05;17.10;;;;;;;13.45;100.00;102195.78;5031482;28;20426;-90
2023/09/04 02:06:34;;;;;;;26.07;16.47;;;;;;;13.45;100.00;102190.31;5031141;28;21012;-91
2023/09/04 02:09:04;;;;;;;29.85;16.48;;;;;;;13.48;100.00;102188.94;5048239;28;20430;-92
2023/09/04 02:11:33;;;;;;;25.70;16.23;;;;;;;13.44;100.00;102185.94;5031859;28;20419;-90
2023/09/04 02:14:01;;;;;;;26.38;17.05;;;;;;;13.51;100.00;102189.25;5031736;28;20423;-92
2023/09/04 02:16:29;;;;;;;28.40;16.33;;;;;;;13.50;100.00;102195.00;5031102;28;20435;-91
2023/09/04 02:18:58;;;;;;;26.88;16.85;;;;;;;13.51;100.00;102193.91;5030702;28;20423;-91
2023/09/04 02:21:26;;;;;;;27.45;16.20;;;;;;;13.44;100.00;102199.59;5033190;28;20415;-93
2023/09/04 02:23:54;;;;;;;28.05;16.67;;;;;;;13.53;100.00;102192.53;5047428;28;20414;-92
2023/09/04 02:26:24;;;;;;;28.00;17.10;;;;;;;13.52;100.00;102190.91;5031816;28;20418;-92
2023/09/04 02:28:52;;;;;;;28.20;17.30;;;;;;;13.53;100.00;102195.28;5031115;28;20411;-90
2023/09/04 02:31:21;;;;;;;30.40;17.70;;;;;;;13.51;100.00;102192.00;5030984;28;20434;-91
2023/09/04 02:33:50;;;;;;;29.75;16.98;;;;;;;13.53;100.00;102191.72;5047861;28;20779;-92
2023/09/04 02:36:18;;;;;;;31.13;17.60;;;;;;;13.46;100.00;102194.69;5030535;28;20426;-90
2023/09/04 02:38:52;;;;;;;29.25;17.55;;;;;;;13.39;100.00;102186.69;5045615;28;20427;-91
2023/09/04 02:41:20;;;;;;;25.15;16.63;;;;;;;13.47;100.00;102196.34;5029785;28;20435;-92
2023/09/04 02:43:50;;;;;;;27.27;16.88;;;;;;;13.40;100.00;102190.28;5029137;28;20422;-91
2023/09/04 02:46:24;;;;;;;30.40;18.23;;;;;;;13.45;100.00;102190.31;5044842;28;20924;-92
2023/09/04 02:48:52;;;;;;;26.03;17.40;;;;;;;13.49;100.00;102188.72;5030088;28;20509;-90
2023/09/04 02:51:26;;;;;;;28.73;18.15;;;;;;;13.47;100.00;102182.66;5030230;28;20419;-91
2023/09/04 02:53:54;;;;;;;29.50;16.95;;;;;;;13.49;100.00;102187.88;5029830;28;20423;-93
2023/09/04 02:56:22;;;;;;;29.27;17.83;;;;;;;13.38;100.00;102182.34;5046979;28;20430;-92
2023/09/04 02:58:52;;;;;;;29.33;17.98;;;;;;;13.38;100.00;102178.75;5030034;28;20419;-92
2023/09/04 03:01:20;;;;;;;28.48;17.00;;;;;;;13.43;100.00;102182.34;5030111;28;20423;-91
2023/09/04 03:03:49;;;;;;;27.45;16.85;;;;;;;13.35;100.00;102176.53;5029578;28;20439;-92
2023/09/04 03:06:17;;;;;;;28.88;17.77;;;;;;;13.35;100.00;102188.31;5030081;28;20419;-90
2023/09/04 03:08:45;;;;;;;28.05;17.08;;;;;;;13.34;100.00;102186.66;5029503;28;20449;-90
2023/09/04 03:11:14;;;;;;;28.00;16.57;;;;;;;13.29;100.00;102172.94;5029991;28;20423;-90
2023/09/04 03:13:42;;;;;;;29.13;16.80;;;;;;;13.26;100.00;102173.47;5029612;28;20411;-92
2023/09/04 03:16:12;;;;;;;24.50;15.90;;;;;;;13.27;100.00;102166.88;5029971;28;20423;-91
2023/09/04 03:18:41;;;;;;;25.55;15.18;;;;;;;13.27;100.00;102175.94;5029582;28;20466;-92
2023/09/04 03:21:09;;;;;;;23.70;14.82;;;;;;;13.25;100.00;102182.75;5031473;28;20426;-91
2023/09/04 03:23:38;;;;;;;26.63;15.85;;;;;;;13.21;100.00;102168.75;5030161;28;20434;-91
2023/09/04 03:26:07;;;;;;;26.85;16.33;;;;;;;13.32;100.00;102172.41;5047296;28;20438;-93
2023/09/04 03:28:35;;;;;;;26.40;16.80;;;;;;;13.27;100.00;102172.34;5029740;28;20419;-92
2023/09/04 03:31:04;;;;;;;29.90;16.08;;;;;;;13.25;100.00;102172.63;5030022;28;20426;-93
2023/09/04 03:33:34;;;;;;;27.33;17.48;;;;;;;13.25;100.00;102169.06;5027364;28;20425;-91
2023/09/04 03:36:04;;;;;;;30.42;17.13;;;;;;;13.24;100.00;102184.66;5029522;28;20419;-92
2023/09/04 03:38:38;;;;;;;24.80;15.82;;;;;;;13.32;100.00;102185.25;5028990;28;20898;-92
2023/09/04 03:41:06;;;;;;;27.92;17.13;;;;;;;13.21;100.00;102178.88;5024776;28;20414;-91
2023/09/04 03:43:35;;;;;;;27.23;16.77;;;;;;;13.20;100.00;102183.53;5030031;28;20487;-91
2023/09/04 03:46:03;;;;;;;26.67;17.15;;;;;;;13.17;100.00;102180.50;5029793;28;20776;-91
2023/09/04 03:48:32;;;;;;;27.10;16.60;;;;;;;13.12;100.00;102172.22;5028801;28;20420;-91
2023/09/04 03:51:03;;;;;;;30.23;17.95;;;;;;;13.07;100.00;102184.78;5025803;28;20422;-90
2023/09/04 03:53:34;;;;;;;27.02;17.58;;;;;;;13.00;100.00;102191.56;5031840;28;20426;-91
2023/09/04 03:56:04;;;;;;;26.67;16.77;;;;;;;12.95;100.00;102186.03;5032989;28;20411;-92
2023/09/04 03:58:33;;;;;;;28.67;16.92;;;;;;;12.94;100.00;102190.69;5032849;28;20423;-92
2023/09/04 04:01:01;;;;;;;28.23;17.52;;;;;;;12.92;100.00;102187.38;5033383;28;20415;-91
2023/09/04 04:03:30;;;;;;;28.23;17.80;;;;;;;12.96;100.00;102185.78;5031242;28;20429;-91
2023/09/04 04:05:58;;;;;;;28.92;18.13;;;;;;;13.03;100.00;102186.38;5033613;28;20430;-91
2023/09/04 04:08:28;;;;;;;33.47;19.15;;;;;;;12.98;100.00;102188.25;5032673;28;21374;-91
2023/09/04 04:10:58;;;;;;;35.40;20.52;;;;;;;13.09;100.00;102192.72;5034100;28;20418;-94
2023/09/04 04:13:26;;;;;;;34.20;19.47;;;;;;;13.07;100.00;102182.03;5032272;28;20422;-91
2023/09/04 04:15:57;;;;;;;37.35;20.52;;;;;;;13.02;100.00;102173.81;5033584;28;20427;-92
2023/09/04 04:18:27;;;;;;;34.72;20.42;;;;;;;13.13;100.00;102187.56;5034809;28;20396;-90
2023/09/04 04:21:00;;;;;;;35.05;21.67;;;;;;;13.05;100.00;102183.38;5031426;28;20783;-90
2023/09/04 04:23:30;;;;;;;34.25;20.92;;;;;;;13.04;100.00;102192.69;5033059;28;20415;-91
2023/09/04 04:25:58;;;;;;;38.45;22.63;;;;;;;12.99;100.00;102185.25;5024130;28;20421;-92
2023/09/04 04:28:32;;;;;;;38.80;22.48;;;;;;;13.01;100.00;102176.78;5018841;28;20434;-93
2023/09/04 04:31:03;;;;;;;37.83;21.63;;;;;;;12.97;100.00;102189.31;5033048;28;21030;-91
2023/09/04 04:33:32;;;;;;;35.30;20.80;;;;;;;13.01;100.00;102184.97;5030946;28;20519;-92
2023/09/04 04:36:03;;;;;;;34.67;20.63;;;;;;;12.99;100.00;102185.25;5035427;28;20430;-91
2023/09/04 04:38:33;;;;;;;32.77;20.03;;;;;;;12.94;100.00;102187.94;5032312;28;20422;-92
2023/09/04 04:41:01;;;;;;;35.77;20.20;;;;;;;12.98;100.00;102185.50;5032998;28;20980;-90
2023/09/04 04:43:30;;;;;;;20.38;12.73;;;;;;;12.64;100.00;102196.66;5029541;28;20435;-91
2023/09/04 04:45:58;;;;;;;16.48;8.88;;;;;;;12.23;100.00;102205.19;5029255;28;20773;-90
2023/09/04 04:48:27;;;;;;;13.88;8.55;;;;;;;12.19;100.00;102201.31;5032188;28;20411;-92
2023/09/04 04:50:56;;;;;;;13.65;8.88;;;;;;;12.14;100.00;102204.81;5048722;28;20426;-91
2023/09/04 04:53:25;;;;;;;17.05;10.32;;;;;;;12.15;100.00;102200.16;5032307;28;20418;-92
2023/09/04 04:55:58;;;;;;;16.50;10.70;;;;;;;12.19;100.00;102210.34;5029849;28;20446;-92
2023/09/04 04:58:27;;;;;;;21.40;11.30;;;;;;;12.21;100.00;102216.34;5031757;28;20430;-90
2023/09/04 05:01:04;;;;;;;20.05;12.48;;;;;;;12.23;100.00;102224.28;5028563;28;20438;-91
2023/09/04 05:03:36;;;;;;;19.67;12.85;;;;;;;12.29;100.00;102216.97;5026675;28;20884;-91
2023/09/04 05:06:10;;;;;;;24.67;14.85;;;;;;;12.19;100.00;102218.53;5029475;28;20415;-91
2023/09/04 05:08:42;;;;;;;28.63;16.23;;;;;;;12.33;100.00;102221.69;5027101;28;20479;-91
2023/09/04 05:11:18;;;;;;;24.92;15.75;;;;;;;12.49;100.00;102219.16;5031288;28;20434;-91
2023/09/04 05:13:49;;;;;;;30.65;17.17;;;;;;;12.67;100.00;102209.78;5028098;28;20428;-91
2023/09/04 05:16:20;;;;;;;27.75;17.15;;;;;;;12.75;100.00;102207.41;5031327;28;20419;-93
2023/09/04 05:18:50;;;;;;;28.30;17.40;;;;;;;12.89;100.00;102216.03;5027620;28;20430;-92
2023/09/04 05:21:20;;;;;;;28.38;17.52;;;;;;;13.01;100.00;102215.88;5030750;28;20427;-92
2023/09/04 05:23:53;;;;;;;29.37;17.40;;;;;;;13.10;100.00;102221.69;5037492;28;20431;-91
2023/09/04 05:26:23;;;;;;;28.80;17.90;;;;;;;13.16;100.00;102206.16;5029534;28;20419;-92
2023/09/04 05:28:52;;;;;;;26.80;16.60;;;;;;;13.27;100.00;102213.38;5031071;28;20423;-91
2023/09/04 05:31:21;;;;;;;29.00;17.10;;;;;;;13.35;100.00;102226.59;5026461;28;21044;-91
2023/09/04 05:33:49;;;;;;;26.13;16.73;;;;;;;13.43;100.00;102222.56;5030641;28;20419;-92
2023/09/04 05:36:17;;;;;;;31.10;16.97;;;;;;;13.53;100.00;102224.53;5026357;28;20446;-92
2023/09/04 05:38:46;;;;;;;26.45;16.13;;;;;;;13.61;100.00;102230.34;5048399;28;20489;-92
2023/09/04 05:41:15;;;;;;;26.17;16.00;;;;;;;13.65;100.00;102219.72;5031295;28;21124;-92
2023/09/04 05:43:45;;;;;;;24.63;14.98;;;;;;;13.66;100.00;102217.78;5028559;28;20435;-92
2023/09/04 05:46:18;;;;;;;24.35;15.00;;;;;;;13.75;100.00;102225.28;5027942;28;20411;-91
2023/09/04 05:48:51;;;;;;;25.30;15.40;;;;;;;13.78;100.00;102218.41;5030372;28;20423;-91
2023/09/04 05:51:20;;;;;;;25.40;15.35;;;;;;;13.86;100.00;102222.59;5046450;28;20424;-91
2023/09/04 05:53:54;;;;;;;24.95;14.20;;;;;;;14.06;100.00;102227.38;5030878;28;20438;-92
2023/09/04 05:56:25;;;;;;;22.70;14.70;;;;;;;14.14;100.00;102226.88;5025198;28;20894;-91
2023/09/04 05:58:56;;;;;;;19.83;13.75;;;;;;;14.20;100.00;102231.25;5029002;28;20424;-92
2023/09/04 06:01:25;;;;;;;23.25;13.13;;;;;;;14.33;100.00;102240.91;5027608;28;20438;-92
2023/09/04 06:03:54;;;;;;;19.77;13.43;;;;;;;14.37;100.00;102233.78;5030113;28;20431;-91
2023/09/04 06:06:24;;;;;;;24.27;13.95;;;;;;;14.45;100.00;102246.97;5029541;28;20410;-91
2023/09/04 06:08:53;;;;;;;22.80;13.60;;;;;;;14.50;100.00;102246.19;5030663;28;20427;-89
2023/09/04 06:11:21;;;;;;;23.38;13.60;;;;;;;14.60;100.00;102250.88;5028371;28;20900;-91
2023/09/04 06:13:50;;;;;;;22.08;12.95;;;;;;;14.63;100.00;102251.19;5030466;28;20453;-93
2023/09/04 06:16:20;;;;;;;20.70;12.75;;;;;;;14.77;100.00;102256.16;5030614;28;20422;-92
2023/09/04 06:18:50;;;;;;;19.67;12.20;;;;;;;14.88;100.00;102254.28;5031756;28;20420;-93
2023/09/04 06:21:21;;;;;;;20.60;11.55;;;;;;;14.91;100.00;102264.69;5031128;28;20419;-92
2023/09/04 06:23:49;;;;;;;19.60;11.90;;;;;;;14.98;100.00;102248.00;5031273;28;20875;-91
2023/09/04 06:26:23;;;;;;;17.63;11.67;;;;;;;15.01;100.00;102253.78;5028302;28;20911;-91
2023/09/04 06:28:54;;;;;;;17.08;10.43;;;;;;;15.11;100.00;102247.47;5025119;28;20423;-92
2023/09/04 06:31:24;;;;;;;15.63;10.10;;;;;;;15.18;100.00;102258.16;5044380;28;20423;-93
2023/09/04 06:33:55;;;;;;;14.98;9.45;;;;;;;15.17;100.00;102260.09;5030368;28;20427;-91
2023/09/04 06:36:28;;;;;;;16.05;9.20;;;;;;;15.28;100.00;102261.75;5025659;28;20911;-90
2023/09/04 06:38:56;;;;;;;13.57;8.30;;;;;;;15.35;100.00;102266.16;5028391;28;20450;-91
2023/09/04 06:41:27;;;;;;;14.00;8.88;;;;;;;15.34;100.00;102267.22;5030522;28;20419;-87
2023/09/04 06:43:57;;;;;;;12.85;8.00;;;;;;;15.51;100.00;102266.97;5027773;28;20438;-90
2023/09/04 06:46:27;;;;;;;13.90;8.10;;;;;;;15.53;100.00;102270.25;5028546;28;20427;-90
2023/09/04 06:48:57;;;;;;;14.30;8.10;;;;;;;15.54;100.00;102271.91;5025838;28;21349;-90
2023/09/04 06:51:25;;;;;;;14.18;7.93;;;;;;;15.50;100.00;102276.31;5027179;28;20435;-90
2023/09/04 06:53:58;;;;;;;14.10;7.63;;;;;;;15.62;100.00;102282.34;5026992;28;20438;-88
2023/09/04 06:56:27;;;;;;;13.00;7.80;;;;;;;15.61;100.00;102275.22;5041924;28;20439;-88
2023/09/04 06:58:55;;;;;;;12.65;7.43;;;;;;;15.78;100.00;102274.91;5026267;28;20426;-88
2023/09/04 07:01:24;;;;;;;14.68;7.30;;;;;;;15.93;100.00;102274.09;5043844;28;20904;-88
2023/09/04 07:03:53;;;;;;;11.77;7.10;;;;;;;15.87;100.00;102272.44;5028066;28;20434;-88
2023/09/04 07:06:23;;;;;;;13.95;6.95;;;;;;;15.89;100.00;102273.00;5028222;28;20431;-88
2023/09/04 07:08:56;;;;;;;13.43;7.32;;;;;;;15.92;100.00;102269.69;5042011;28;20411;-88
2023/09/04 07:11:24;;;;;;;10.23;6.60;;;;;;;16.05;100.00;102263.66;5032189;28;20434;-89
2023/09/04 07:13:53;;;;;;;11.57;6.53;;;;;;;16.02;100.00;102261.47;5027597;28;20431;-89
2023/09/04 07:16:21;;;;;;;11.07;6.00;;;;;;;16.22;100.00;102271.56;5044095;28;20938;-90
2023/09/04 07:18:50;;;;;;;11.60;6.57;;;;;;;16.23;100.00;102275.16;5041933;28;20412;-86
2023/09/04 07:21:19;;;;;;;11.70;5.97;;;;;;;16.11;100.00;102283.69;5028170;28;20440;-88
2023/09/04 07:23:48;;;;;;;10.23;6.50;;;;;;;16.11;100.00;102273.50;4976025;28;20446;-89
2023/09/04 07:26:17;;;;;;;10.68;6.13;;;;;;;16.07;100.00;102277.91;5024189;28;20457;-89
2023/09/04 07:28:50;;;;;;;11.07;6.20;;;;;;;16.11;100.00;102278.19;5015980;28;20426;-91
2023/09/04 07:31:21;;;;;;;11.82;6.82;;;;;;;16.13;100.00;102276.81;5017893;28;20415;-89
2023/09/04 07:33:50;;;;;;;10.88;6.25;;;;;;;16.28;100.00;102278.69;5026758;28;20419;-89
2023/09/04 07:36:19;;;;;;;10.02;5.55;;;;;;;16.41;100.00;102273.72;5016003;28;20427;-89
2023/09/04 07:38:47;;;;;;;9.50;5.30;;;;;;;16.47;100.00;102275.31;5010397;28;20624;-87
2023/09/04 07:41:20;;;;;;;11.18;5.63;;;;;;;16.63;100.00;102287.91;5004683;28;20428;-88
2023/09/04 07:43:49;;;;;;;9.82;5.35;;;;;;;16.56;100.00;102279.13;5030147;28;20443;-87
2023/09/04 07:46:22;;;;;;;9.60;5.53;;;;;;;16.46;100.00;102290.16;5009102;28;20432;-88
2023/09/04 07:48:56;;;;;;;10.02;5.13;;;;;;;16.58;100.00;102295.34;5012058;28;20423;-88
2023/09/04 07:51:25;;;;;;;10.57;5.45;;;;;;;16.59;100.00;102283.25;5009596;28;20432;-88
2023/09/04 07:53:59;;;;;;;9.73;5.30;;;;;;;16.61;100.00;102290.13;5014262;28;20517;-88
2023/09/04 07:56:27;;;;;;;11.05;5.70;;;;;;;16.52;100.00;102294.53;5008076;28;20427;-88
2023/09/04 07:59:01;;;;;;;8.40;5.18;;;;;;;16.53;100.00;102293.44;5009124;28;20437;-88
2023/09/04 08:01:34;;;;;;;9.40;5.30;;;;;;;16.70;100.00;102292.28;5014577;28;20435;-88
2023/09/04 08:04:02;;;;;;;10.57;4.65;;;;;;;16.74;100.00;102290.63;5009827;28;20438;-88
2023/09/04 08:06:37;;;;;;;7.05;4.25;;;;;;;16.74;100.00;102291.44;5008472;28;21024;-87
2023/09/04 08:09:07;;;;;;;8.10;4.13;;;;;;;16.72;100.00;102279.06;5007798;28;20431;-87
2023/09/04 08:11:36;;;;;;;8.93;4.30;;;;;;;16.82;100.00;102282.59;5001596;28;20458;-87
2023/09/04 08:14:04;;;;;;;7.50;3.80;;;;;;;16.89;100.00;102285.06;5011871;28;20427;-88
2023/09/04 08:16:32;;;;;;;7.35;3.78;;;;;;;16.89;100.00;102287.81;5024576;28;20422;-87
2023/09/04 08:19:05;;;;;;;7.85;3.92;;;;;;;17.11;100.00;102286.56;5008864;28;21303;-85
2023/09/04 08:21:40;;;;;;;6.72;3.65;;;;;;;17.10;100.00;102288.50;5002517;28;20461;-88
2023/09/04 08:24:08;;;;;;;9.20;4.40;;;;;;;16.97;100.00;102280.88;5011847;28;20423;-88
2023/09/04 08:26:41;;;;;;;7.70;3.90;;;;;;;16.98;100.00;102286.09;5011133;28;20434;-86
2023/09/04 08:29:09;;;;;;;8.23;3.70;;;;;;;17.13;100.00;102281.63;5011144;28;20452;-87
2023/09/04 08:31:38;;;;;;;6.95;3.38;;;;;;;17.07;100.00;102286.31;5008034;28;21060;-88
2023/09/04 08:34:06;;;;;;;7.22;4.00;;;;;;;16.89;100.00;102282.31;5020379;28;20435;-89
2023/09/04 08:36:34;;;;;;;7.45;3.38;;;;;;;17.02;100.00;102280.84;5032424;28;20434;-89
2023/09/04 08:39:04;;;;;;;5.90;3.00;;;;;;;17.23;100.00;102277.97;5015315;28;20438;-89
2023/09/04 08:41:32;;;;;;;6.63;3.33;;;;;;;17.29;100.00;102272.16;5006761;28;20439;-89
2023/09/04 08:44:01;;;;;;;7.10;3.30;;;;;;;17.38;100.00;102274.28;5006899;28;20438;-90
2023/09/04 08:46:30;;;;;;;7.18;3.40;;;;;;;17.43;100.00;102269.56;5030884;28;20431;-88
2023/09/04 08:49:02;;;;;;;6.18;3.20;;;;;;;17.52;100.00;102269.75;5011958;28;20431;-88
2023/09/04 08:51:31;;;;;;;6.45;3.25;;;;;;;17.50;100.00;102275.53;5010371;28;20439;-88
2023/09/04 08:53:59;;;;;;;7.95;3.30;;;;;;;17.48;100.00;102269.53;5007185;28;20814;-89
2023/09/04 08:56:31;;;;;;;13.57;3.50;;;;;;;17.51;100.00;102270.84;5025717;28;20431;-89
2023/09/04 08:58:59;;;;;;;6.57;3.00;;;;;;;17.65;100.00;102276.53;5009270;28;20426;-90
2023/09/04 09:01:31;;;;;;;6.40;2.90;;;;;;;17.58;100.00;102271.38;5006612;28;20526;-88
2023/09/04 09:04:05;;;;;;;5.93;2.90;;;;;;;17.47;100.00;102273.38;5009296;28;20435;-89
2023/09/04 09:07:24;;;;;;;8.27;3.40;;;;;;;17.57;100.00;102266.97;5007595;28;20442;-91
2023/09/04 09:10:07;;;;;;;6.82;3.25;;;;;;;17.68;100.00;102263.00;5004051;28;20438;-90
2023/09/04 09:12:37;;;;;;;5.40;2.90;;;;;;;17.86;100.00;102257.88;5015884;28;20410;-90
2023/09/04 09:15:11;;;;;;;5.93;3.33;;;;;;;17.84;100.00;102254.59;5006561;28;20453;-91
2023/09/04 09:17:49;;;;;;;6.93;3.33;;;;;;;17.88;100.00;102268.59;5014311;28;20423;-89
2023/09/04 09:20:30;;;;;;;5.82;3.17;;;;;;;17.95;100.00;102258.94;5014343;28;21295;-92
2023/09/04 09:23:05;;;;;;;9.02;2.90;;;;;;;17.98;100.00;102257.50;4992258;28;20434;-89
2023/09/04 09:25:34;;;;;;;7.07;3.42;;;;;;;17.92;100.00;102269.69;5014343;28;20423;-89
2023/09/04 09:28:05;;;;;;;6.13;3.30;;;;;;;17.92;100.00;102265.00;5008941;28;20434;-88
2023/09/04 09:30:40;;;;;;;6.78;3.47;;;;;;;18.03;100.00;102268.47;5002747;28;20427;-89
2023/09/04 09:33:12;;;;;;;6.65;3.72;;;;;;;18.34;100.00;102263.44;5007606;28;20429;-87
2023/09/04 09:35:41;;;;;;;7.72;4.20;;;;;;;18.30;100.00;102262.41;5010898;28;20423;-89
2023/09/04 09:38:14;;;;;;;7.95;4.30;;;;;;;18.18;100.00;102268.31;5013077;28;20792;-90
2023/09/04 09:40:45;;;;;;;17.50;10.63;;;;;;;18.41;100.00;102259.50;5011491;28;20430;-87
2023/09/04 09:43:19;;;;;;;8.43;3.85;;;;;;;18.45;100.00;102268.81;5006020;28;20423;-87
2023/09/04 09:45:52;;;;;;;6.40;3.40;;;;;;;18.57;100.00;102265.66;5010336;28;20454;-86
2023/09/04 09:48:26;;;;;;;7.93;3.42;;;;;;;18.59;100.00;102257.88;5014384;28;20423;-87
2023/09/04 09:51:00;;;;;;;7.60;3.50;;;;;;;18.53;100.00;102262.66;5010833;28;20434;-88
2023/09/04 09:53:44;;;;;;;7.45;3.50;;;;;;;18.53;100.00;102260.75;5014594;28;20743;-88
2023/09/04 09:56:20;;;;;;;8.77;3.80;;;;;;;18.62;100.00;102257.31;5014406;28;20439;-87
2023/09/04 09:58:50;;;;;;;7.32;3.58;;;;;;;18.49;100.00;102245.91;5012381;28;21332;-88
2023/09/04 10:01:19;;;;;;;6.47;3.67;;;;;;;18.70;100.00;102251.16;5005147;28;20435;-89
2023/09/04 10:03:53;;;;;;;6.75;3.40;;;;;;;18.67;100.00;102244.28;5007270;28;20443;-88
2023/09/04 10:06:34;;;;;;;5.13;3.05;;;;;;;18.80;100.00;102241.91;5008815;28;20454;-88
2023/09/04 10:09:03;;;;;;;6.15;2.97;;;;;;;19.16;100.00;102231.16;5012050;28;20997;-88
2023/09/04 10:11:34;;;;;;;7.55;3.20;;;;;;;18.98;100.00;102232.00;5004107;28;20435;-89
2023/09/04 10:14:12;;;;;;;5.57;2.70;;;;;;;19.22;100.00;102231.91;5021152;28;20807;-89
2023/09/04 10:16:44;;;;;;;6.80;2.60;;;;;;;19.18;100.00;102239.97;5024881;28;20430;-89
2023/09/04 10:19:13;;;;;;;6.47;2.67;;;;;;;19.17;100.00;102240.28;5021632;28;20427;-89
2023/09/04 10:21:47;;;;;;;6.60;2.80;;;;;;;19.05;100.00;102232.44;4989015;28;21358;-89
2023/09/04 10:24:17;;;;;;;5.82;2.45;;;;;;;19.24;100.00;102232.44;5000536;28;20438;-88
2023/09/04 10:26:59;;;;;;;5.47;2.38;;;;;;;19.22;100.00;102229.13;5027488;28;20431;-90
2023/09/04 10:29:42;;;;;;;4.05;2.17;;;;;;;19.12;100.00;102227.38;5004987;28;20435;-89
2023/09/04 10:32:16;;;;;;;5.00;2.30;;;;;;;19.14;100.00;102229.81;5001269;28;20485;-88
2023/09/04 10:34:44;;;;;;;4.40;1.92;;;;;;;19.28;100.00;102235.38;5006689;28;20453;-88
2023/09/04 10:37:18;;;;;;;2.80;1.80;;;;;;;19.39;100.00;102236.88;5002284;28;20443;-87
2023/09/04 10:39:52;;;;;;;3.42;1.90;;;;;;;19.74;100.00;102233.78;5014139;28;20431;-88
2023/09/04 10:42:23;;;;;;;3.83;2.10;;;;;;;19.26;100.00;102227.41;5006908;28;20435;-90
2023/09/04 10:44:58;;;;;;;4.70;1.92;;;;;;;19.26;100.00;102219.13;5005249;28;20435;-89
2023/09/04 10:47:44;;;;;;;4.03;2.00;;;;;;;19.20;100.00;102215.66;5009565;28;20442;-88
2023/09/04 10:50:29;;;;;;;4.15;2.15;;;;;;;19.20;100.00;102221.16;5012903;28;20431;-87
2023/09/04 10:53:05;;;;;;;3.05;1.88;;;;;;;19.41;100.00;102215.31;5016752;28;22216;-89
2023/09/04 10:55:39;;;;;;;3.90;1.87;;;;;;;19.65;100.00;102214.31;5013104;28;20453;-88
2023/09/04 10:58:10;;;;;;;3.92;1.88;;;;;;;19.78;100.00;102205.25;5008708;28;20415;-89
2023/09/04 11:00:45;;;;;;;5.63;2.20;;;;;;;19.67;100.00;102214.84;5008311;28;20419;-88
2023/09/04 11:03:15;;;;;;;5.50;2.40;;;;;;;19.66;100.00;102204.91;5024976;28;20422;-88
2023/09/04 11:06:12;;;;;;;4.65;2.00;;;;;;;19.97;100.00;102207.13;5014344;28;20915;-86
2023/09/04 11:08:50;;;;;;;2.60;1.65;;;;;;;19.68;100.00;102210.97;5005793;28;20434;-89
2023/09/04 11:11:22;;;;;;;4.82;2.28;;;;;;;19.51;100.00;102206.00;5003684;28;20445;-89
2023/09/04 11:13:56;;;;;;;5.80;2.40;;;;;;;19.60;100.00;102201.44;5003954;28;20446;-88
2023/09/04 11:16:26;;;;;;;7.32;2.55;;;;;;;20.01;100.00;102188.78;5016696;28;20418;-87
2023/09/04 11:19:03;;;;;;;6.10;2.50;;;;;;;20.35;100.00;102193.88;5010142;28;20431;-88
2023/09/04 11:21:33;;;;;;;3.83;2.10;;;;;;;19.97;100.00;102202.44;5013259;28;20439;-89
2023/09/04 11:24:07;;;;;;;5.10;2.20;;;;;;;19.94;100.00;102199.44;4988681;28;20442;-88